sensor_id;sensor_type;location;lat;lon;timestamp;temperature;humidity
3528;DHT22;1778;47.966;7.854;2023-04-01T00:00:18;9.00;99.90
3528;DHT22;1778;47.966;7.854;2023-04-01T00:01:19;9.00;99.90
3528;DHT22;1778;47.966;7.854;2023-04-01T00:02:21;8.90;99.90
3528;DHT22;1778;47.966;7.854;2023-04-01T00:03:25;8.90;99.90
3528;DHT22;1778;47.966;7.854;2023-04-01T00:04:28;8.80;99.90
3528;DHT22;1778;47.966;7.854;2023-04-01T00:05:30;8.80;99.90
3528;DHT22;1778;47.966;7.854;2023-04-01T00:06:32;8.80;99.90
3528;DHT22;1778;47.966;7.854;2023-04-01T00:07:34;8.80;99.90
3528;DHT22;1778;47.966;7.854;2023-04-01T00:08:36;8.70;99.90
3528;DHT22;1778;47.966;7.854;2023-04-01T00:09:37;8.60;99.90
3528;DHT22;1778;47.966;7.854;2023-04-01T00:10:39;8.70;99.90
3528;DHT22;1778;47.966;7.854;2023-04-01T00:11:40;8.70;99.90
3528;DHT22;1778;47.966;7.854;2023-04-01T00:12:42;8.60;99.90
3528;DHT22;1778;47.966;7.854;2023-04-01T00:13:44;8.60;99.90
3528;DHT22;1778;47.966;7.854;2023-04-01T00:14:45;8.50;99.90
3528;DHT22;1778;47.966;7.854;2023-04-01T00:15:47;8.50;99.90
3528;DHT22;1778;47.966;7.854;2023-04-01T00:16:49;8.60;99.90
3528;DHT22;1778;47.966;7.854;2023-04-01T00:17:51;8.60;99.90
3528;DHT22;1778;47.966;7.854;2023-04-01T00:18:53;8.60;99.90
3528;DHT22;1778;47.966;7.854;2023-04-01T00:19:55;8.60;99.90
3528;DHT22;1778;47.966;7.854;2023-04-01T00:20:57;8.50;99.90
3528;DHT22;1778;47.966;7.854;2023-04-01T00:21:59;8.50;99.90
3528;DHT22;1778;47.966;7.854;2023-04-01T00:23:01;8.50;99.90
3528;DHT22;1778;47.966;7.854;2023-04-01T00:24:03;8.40;99.90
3528;DHT22;1778;47.966;7.854;2023-04-01T00:25:05;8.50;99.90
3528;DHT22;1778;47.966;7.854;2023-04-01T00:26:06;8.40;99.90
3528;DHT22;1778;47.966;7.854;2023-04-01T00:27:08;8.40;99.90
3528;DHT22;1778;47.966;7.854;2023-04-01T00:28:10;8.40;99.90
3528;DHT22;1778;47.966;7.854;2023-04-01T00:29:11;8.40;99.90
3528;DHT22;1778;47.966;7.854;2023-04-01T00:30:13;8.50;99.90
3528;DHT22;1778;47.966;7.854;2023-04-01T00:31:15;8.50;99.90
3528;DHT22;1778;47.966;7.854;2023-04-01T00:32:17;8.50;99.90
3528;DHT22;1778;47.966;7.854;2023-04-01T00:33:18;8.50;99.90
3528;DHT22;1778;47.966;7.854;2023-04-01T00:34:21;8.50;99.90
3528;DHT22;1778;47.966;7.854;2023-04-01T00:35:22;8.50;99.90
3528;DHT22;1778;47.966;7.854;2023-04-01T00:36:24;8.50;99.90
3528;DHT22;1778;47.966;7.854;2023-04-01T00:37:27;8.50;99.90
3528;DHT22;1778;47.966;7.854;2023-04-01T00:38:28;8.50;99.90
3528;DHT22;1778;47.966;7.854;2023-04-01T00:39:31;8.50;99.90
3528;DHT22;1778;47.966;7.854;2023-04-01T00:40:36;8.50;99.90
3528;DHT22;1778;47.966;7.854;2023-04-01T00:41:38;8.50;99.90
3528;DHT22;1778;47.966;7.854;2023-04-01T00:42:39;8.50;99.90
3528;DHT22;1778;47.966;7.854;2023-04-01T00:43:49;8.60;99.90
3528;DHT22;1778;47.966;7.854;2023-04-01T00:44:53;8.60;99.90
3528;DHT22;1778;47.966;7.854;2023-04-01T00:45:54;8.60;99.90
3528;DHT22;1778;47.966;7.854;2023-04-01T00:46:56;8.70;99.90
3528;DHT22;1778;47.966;7.854;2023-04-01T00:48:03;8.70;99.90
3528;DHT22;1778;47.966;7.854;2023-04-01T00:49:06;8.70;99.90
3528;DHT22;1778;47.966;7.854;2023-04-01T00:50:08;8.60;99.90
3528;DHT22;1778;47.966;7.854;2023-04-01T00:51:15;8.60;99.90
3528;DHT22;1778;47.966;7.854;2023-04-01T00:52:22;8.70;99.90
3528;DHT22;1778;47.966;7.854;2023-04-01T00:53:24;8.70;99.90
3528;DHT22;1778;47.966;7.854;2023-04-01T00:54:28;8.70;99.90
3528;DHT22;1778;47.966;7.854;2023-04-01T00:55:33;8.70;99.90
3528;DHT22;1778;47.966;7.854;2023-04-01T00:56:39;8.70;99.90
3528;DHT22;1778;47.966;7.854;2023-04-01T00:57:44;8.80;99.90
3528;DHT22;1778;47.966;7.854;2023-04-01T00:58:50;8.70;99.90
3528;DHT22;1778;47.966;7.854;2023-04-01T00:59:54;8.70;99.90
3528;DHT22;1778;47.966;7.854;2023-04-01T01:00:58;8.70;99.90
3528;DHT22;1778;47.966;7.854;2023-04-01T01:02:07;8.80;99.90
3528;DHT22;1778;47.966;7.854;2023-04-01T01:03:09;8.80;99.90
3528;DHT22;1778;47.966;7.854;2023-04-01T01:04:32;8.70;99.90
3528;DHT22;1778;47.966;7.854;2023-04-01T01:07:38;8.80;99.90
3528;DHT22;1778;47.966;7.854;2023-04-01T01:11:02;8.80;99.90
3528;DHT22;1778;47.966;7.854;2023-04-01T01:12:22;8.80;99.90
3528;DHT22;1778;47.966;7.854;2023-04-01T01:13:36;8.90;99.90
3528;DHT22;1778;47.966;7.854;2023-04-01T01:16:26;8.90;99.90
3528;DHT22;1778;47.966;7.854;2023-04-01T01:19:10;8.80;99.90
3528;DHT22;1778;47.966;7.854;2023-04-01T01:25:02;8.70;99.90
3528;DHT22;1778;47.966;7.854;2023-04-01T01:27:18;8.70;99.90
3528;DHT22;1778;47.966;7.854;2023-04-01T01:36:44;8.80;99.90
3528;DHT22;1778;47.966;7.854;2023-04-01T01:37:51;8.80;99.90
3528;DHT22;1778;47.966;7.854;2023-04-01T01:38:54;8.80;99.90
3528;DHT22;1778;47.966;7.854;2023-04-01T01:40:05;8.80;99.90
3528;DHT22;1778;47.966;7.854;2023-04-01T01:41:10;8.90;99.90
3528;DHT22;1778;47.966;7.854;2023-04-01T01:42:15;8.90;99.90
3528;DHT22;1778;47.966;7.854;2023-04-01T01:43:24;8.90;99.90
3528;DHT22;1778;47.966;7.854;2023-04-01T01:44:28;8.90;99.90
3528;DHT22;1778;47.966;7.854;2023-04-01T01:45:34;8.90;99.90
3528;DHT22;1778;47.966;7.854;2023-04-01T01:46:39;8.90;99.90
3528;DHT22;1778;47.966;7.854;2023-04-01T01:47:43;8.90;99.90
3528;DHT22;1778;47.966;7.854;2023-04-01T01:48:46;8.90;99.90
3528;DHT22;1778;47.966;7.854;2023-04-01T01:49:51;8.90;99.90
3528;DHT22;1778;47.966;7.854;2023-04-01T01:50:54;8.80;99.90
3528;DHT22;1778;47.966;7.854;2023-04-01T01:51:56;8.80;99.90
3528;DHT22;1778;47.966;7.854;2023-04-01T01:53:16;8.80;99.90
3528;DHT22;1778;47.966;7.854;2023-04-01T01:54:18;8.90;99.90
3528;DHT22;1778;47.966;7.854;2023-04-01T01:56:29;8.90;99.90
3528;DHT22;1778;47.966;7.854;2023-04-01T01:57:34;8.90;99.90
3528;DHT22;1778;47.966;7.854;2023-04-01T01:58:44;8.90;99.90
3528;DHT22;1778;47.966;7.854;2023-04-01T01:59:49;9.00;99.90
3528;DHT22;1778;47.966;7.854;2023-04-01T02:01:09;9.00;99.90
3528;DHT22;1778;47.966;7.854;2023-04-01T02:02:14;9.00;99.90
3528;DHT22;1778;47.966;7.854;2023-04-01T02:03:17;8.90;99.90
3528;DHT22;1778;47.966;7.854;2023-04-01T02:04:21;8.90;99.90
3528;DHT22;1778;47.966;7.854;2023-04-01T02:05:26;8.90;99.90
3528;DHT22;1778;47.966;7.854;2023-04-01T02:06:39;8.90;99.90
3528;DHT22;1778;47.966;7.854;2023-04-01T02:07:48;8.90;99.90
3528;DHT22;1778;47.966;7.854;2023-04-01T02:08:57;9.00;99.90
3528;DHT22;1778;47.966;7.854;2023-04-01T02:10:00;9.00;99.90
3528;DHT22;1778;47.966;7.854;2023-04-01T02:11:07;9.00;99.90
3528;DHT22;1778;47.966;7.854;2023-04-01T02:12:15;9.00;99.90
3528;DHT22;1778;47.966;7.854;2023-04-01T02:13:36;9.00;99.90
3528;DHT22;1778;47.966;7.854;2023-04-01T02:15:47;9.00;99.90
3528;DHT22;1778;47.966;7.854;2023-04-01T02:17:01;9.00;99.90
3528;DHT22;1778;47.966;7.854;2023-04-01T02:18:04;9.00;99.90
3528;DHT22;1778;47.966;7.854;2023-04-01T02:19:07;9.10;99.90
3528;DHT22;1778;47.966;7.854;2023-04-01T02:20:19;9.10;99.90
3528;DHT22;1778;47.966;7.854;2023-04-01T02:21:24;9.10;99.90
3528;DHT22;1778;47.966;7.854;2023-04-01T02:22:34;9.10;99.90
3528;DHT22;1778;47.966;7.854;2023-04-01T02:23:37;9.00;99.90
3528;DHT22;1778;47.966;7.854;2023-04-01T02:24:39;9.00;99.90
3528;DHT22;1778;47.966;7.854;2023-04-01T02:25:42;9.00;99.90
3528;DHT22;1778;47.966;7.854;2023-04-01T02:26:45;9.00;99.90
3528;DHT22;1778;47.966;7.854;2023-04-01T02:27:47;9.00;99.90
3528;DHT22;1778;47.966;7.854;2023-04-01T02:28:50;9.00;99.90
3528;DHT22;1778;47.966;7.854;2023-04-01T02:29:54;9.00;99.90
3528;DHT22;1778;47.966;7.854;2023-04-01T02:30:55;9.00;99.90
3528;DHT22;1778;47.966;7.854;2023-04-01T02:31:59;9.00;99.90
3528;DHT22;1778;47.966;7.854;2023-04-01T02:33:03;8.90;99.90
3528;DHT22;1778;47.966;7.854;2023-04-01T02:34:05;8.90;99.90
3528;DHT22;1778;47.966;7.854;2023-04-01T02:35:13;8.90;99.90
3528;DHT22;1778;47.966;7.854;2023-04-01T02:36:16;8.90;99.90
3528;DHT22;1778;47.966;7.854;2023-04-01T02:37:18;8.90;99.90
3528;DHT22;1778;47.966;7.854;2023-04-01T02:38:20;8.90;99.90
3528;DHT22;1778;47.966;7.854;2023-04-01T02:39:22;8.90;99.90
3528;DHT22;1778;47.966;7.854;2023-04-01T02:40:23;8.90;99.90
3528;DHT22;1778;47.966;7.854;2023-04-01T02:41:25;8.90;99.90
3528;DHT22;1778;47.966;7.854;2023-04-01T02:42:27;8.80;99.90
3528;DHT22;1778;47.966;7.854;2023-04-01T02:43:28;8.80;99.90
3528;DHT22;1778;47.966;7.854;2023-04-01T02:44:30;8.70;99.90
3528;DHT22;1778;47.966;7.854;2023-04-01T02:45:32;8.70;99.90
3528;DHT22;1778;47.966;7.854;2023-04-01T02:46:35;8.70;99.90
3528;DHT22;1778;47.966;7.854;2023-04-01T02:47:38;8.70;99.90
3528;DHT22;1778;47.966;7.854;2023-04-01T02:48:40;8.70;99.90
3528;DHT22;1778;47.966;7.854;2023-04-01T02:49:42;8.70;99.90
3528;DHT22;1778;47.966;7.854;2023-04-01T02:50:45;8.60;99.90
3528;DHT22;1778;47.966;7.854;2023-04-01T02:51:47;8.50;99.90
3528;DHT22;1778;47.966;7.854;2023-04-01T02:52:48;8.50;99.90
3528;DHT22;1778;47.966;7.854;2023-04-01T02:53:50;8.50;99.90
3528;DHT22;1778;47.966;7.854;2023-04-01T02:54:52;8.50;99.90
3528;DHT22;1778;47.966;7.854;2023-04-01T02:55:54;8.50;99.90
3528;DHT22;1778;47.966;7.854;2023-04-01T02:56:56;8.50;99.90
3528;DHT22;1778;47.966;7.854;2023-04-01T02:57:58;8.50;99.90
3528;DHT22;1778;47.966;7.854;2023-04-01T02:59:00;8.50;99.90
3528;DHT22;1778;47.966;7.854;2023-04-01T03:00:02;8.50;99.90
3528;DHT22;1778;47.966;7.854;2023-04-01T03:01:04;8.50;99.90
3528;DHT22;1778;47.966;7.854;2023-04-01T03:02:06;8.60;99.90
3528;DHT22;1778;47.966;7.854;2023-04-01T03:03:08;8.70;99.90
3528;DHT22;1778;47.966;7.854;2023-04-01T03:04:10;8.60;99.90
3528;DHT22;1778;47.966;7.854;2023-04-01T03:05:12;8.50;99.90
3528;DHT22;1778;47.966;7.854;2023-04-01T03:06:15;8.50;99.90
3528;DHT22;1778;47.966;7.854;2023-04-01T03:07:17;8.40;99.90
3528;DHT22;1778;47.966;7.854;2023-04-01T03:08:19;8.40;99.90
3528;DHT22;1778;47.966;7.854;2023-04-01T03:09:21;8.40;99.90
3528;DHT22;1778;47.966;7.854;2023-04-01T03:10:22;8.50;99.90
3528;DHT22;1778;47.966;7.854;2023-04-01T03:11:23;8.50;99.90
3528;DHT22;1778;47.966;7.854;2023-04-01T03:12:27;8.40;99.90
3528;DHT22;1778;47.966;7.854;2023-04-01T03:13:28;8.40;99.90
3528;DHT22;1778;47.966;7.854;2023-04-01T03:14:30;8.40;99.90
3528;DHT22;1778;47.966;7.854;2023-04-01T03:15:32;8.40;99.90
3528;DHT22;1778;47.966;7.854;2023-04-01T03:16:34;8.40;99.90
3528;DHT22;1778;47.966;7.854;2023-04-01T03:17:36;8.40;99.90
3528;DHT22;1778;47.966;7.854;2023-04-01T03:18:37;8.40;99.90
3528;DHT22;1778;47.966;7.854;2023-04-01T03:19:39;8.40;99.90
3528;DHT22;1778;47.966;7.854;2023-04-01T03:20:43;8.50;99.90
3528;DHT22;1778;47.966;7.854;2023-04-01T03:21:44;8.40;99.90
3528;DHT22;1778;47.966;7.854;2023-04-01T03:22:46;8.40;99.90
3528;DHT22;1778;47.966;7.854;2023-04-01T03:23:48;8.40;99.90
3528;DHT22;1778;47.966;7.854;2023-04-01T03:24:50;8.40;99.90
3528;DHT22;1778;47.966;7.854;2023-04-01T03:25:51;8.40;99.90
3528;DHT22;1778;47.966;7.854;2023-04-01T03:26:53;8.40;99.90
3528;DHT22;1778;47.966;7.854;2023-04-01T03:27:54;8.40;99.90
3528;DHT22;1778;47.966;7.854;2023-04-01T03:28:57;8.40;99.90
3528;DHT22;1778;47.966;7.854;2023-04-01T03:29:58;8.30;99.90
3528;DHT22;1778;47.966;7.854;2023-04-01T03:31:01;8.40;99.90
3528;DHT22;1778;47.966;7.854;2023-04-01T03:32:06;8.40;99.90
3528;DHT22;1778;47.966;7.854;2023-04-01T03:33:07;8.40;99.90
3528;DHT22;1778;47.966;7.854;2023-04-01T03:34:09;8.50;99.90
3528;DHT22;1778;47.966;7.854;2023-04-01T03:35:11;8.40;99.90
3528;DHT22;1778;47.966;7.854;2023-04-01T03:36:13;8.50;99.90
3528;DHT22;1778;47.966;7.854;2023-04-01T03:37:16;8.40;99.90
3528;DHT22;1778;47.966;7.854;2023-04-01T03:38:18;8.40;99.90
3528;DHT22;1778;47.966;7.854;2023-04-01T03:39:20;8.40;99.90
3528;DHT22;1778;47.966;7.854;2023-04-01T03:40:22;8.40;99.90
3528;DHT22;1778;47.966;7.854;2023-04-01T03:41:24;8.30;99.90
3528;DHT22;1778;47.966;7.854;2023-04-01T03:42:26;8.30;99.90
3528;DHT22;1778;47.966;7.854;2023-04-01T03:43:28;8.30;99.90
3528;DHT22;1778;47.966;7.854;2023-04-01T03:44:31;8.30;99.90
3528;DHT22;1778;47.966;7.854;2023-04-01T03:45:34;8.20;99.90
3528;DHT22;1778;47.966;7.854;2023-04-01T03:46:36;8.20;99.90
3528;DHT22;1778;47.966;7.854;2023-04-01T03:47:39;8.30;99.90
3528;DHT22;1778;47.966;7.854;2023-04-01T03:48:41;8.30;99.90
3528;DHT22;1778;47.966;7.854;2023-04-01T03:49:43;8.20;99.90
3528;DHT22;1778;47.966;7.854;2023-04-01T03:50:45;8.20;99.90
3528;DHT22;1778;47.966;7.854;2023-04-01T03:51:47;8.10;99.90
3528;DHT22;1778;47.966;7.854;2023-04-01T03:52:48;8.10;99.90
3528;DHT22;1778;47.966;7.854;2023-04-01T03:53:50;8.10;99.90
3528;DHT22;1778;47.966;7.854;2023-04-01T03:54:52;8.10;99.90
3528;DHT22;1778;47.966;7.854;2023-04-01T03:55:53;7.90;99.90
3528;DHT22;1778;47.966;7.854;2023-04-01T03:56:55;8.00;99.90
3528;DHT22;1778;47.966;7.854;2023-04-01T03:57:59;8.00;99.90
3528;DHT22;1778;47.966;7.854;2023-04-01T03:59:04;8.00;99.90
3528;DHT22;1778;47.966;7.854;2023-04-01T04:00:07;7.90;99.90
3528;DHT22;1778;47.966;7.854;2023-04-01T04:01:19;7.90;99.90
3528;DHT22;1778;47.966;7.854;2023-04-01T04:02:27;7.90;99.90
3528;DHT22;1778;47.966;7.854;2023-04-01T04:03:32;7.90;99.90
3528;DHT22;1778;47.966;7.854;2023-04-01T04:04:34;7.90;99.90
3528;DHT22;1778;47.966;7.854;2023-04-01T04:05:36;7.90;99.90
3528;DHT22;1778;47.966;7.854;2023-04-01T04:06:37;7.80;99.90
3528;DHT22;1778;47.966;7.854;2023-04-01T04:07:40;7.80;99.90
3528;DHT22;1778;47.966;7.854;2023-04-01T04:08:42;7.90;99.90
3528;DHT22;1778;47.966;7.854;2023-04-01T04:09:44;7.80;99.90
3528;DHT22;1778;47.966;7.854;2023-04-01T04:10:45;7.90;99.90
3528;DHT22;1778;47.966;7.854;2023-04-01T04:11:48;7.90;99.90
3528;DHT22;1778;47.966;7.854;2023-04-01T04:12:51;7.90;99.90
3528;DHT22;1778;47.966;7.854;2023-04-01T04:13:54;8.00;99.90
3528;DHT22;1778;47.966;7.854;2023-04-01T04:14:58;8.00;99.90
3528;DHT22;1778;47.966;7.854;2023-04-01T04:15:59;8.00;99.90
3528;DHT22;1778;47.966;7.854;2023-04-01T04:17:02;8.00;99.90
3528;DHT22;1778;47.966;7.854;2023-04-01T04:18:04;8.00;99.90
3528;DHT22;1778;47.966;7.854;2023-04-01T04:19:06;8.00;99.90
3528;DHT22;1778;47.966;7.854;2023-04-01T04:20:08;7.90;99.90
3528;DHT22;1778;47.966;7.854;2023-04-01T04:21:12;8.00;99.90
3528;DHT22;1778;47.966;7.854;2023-04-01T04:22:15;8.00;99.90
3528;DHT22;1778;47.966;7.854;2023-04-01T04:23:17;8.00;99.90
3528;DHT22;1778;47.966;7.854;2023-04-01T04:24:19;7.90;99.90
3528;DHT22;1778;47.966;7.854;2023-04-01T04:25:40;8.00;99.90
3528;DHT22;1778;47.966;7.854;2023-04-01T04:26:41;8.00;99.90
3528;DHT22;1778;47.966;7.854;2023-04-01T04:27:44;8.00;99.90
3528;DHT22;1778;47.966;7.854;2023-04-01T04:28:47;8.00;99.90
3528;DHT22;1778;47.966;7.854;2023-04-01T04:29:50;8.00;99.90
3528;DHT22;1778;47.966;7.854;2023-04-01T04:30:52;8.00;99.90
3528;DHT22;1778;47.966;7.854;2023-04-01T04:31:54;8.10;99.90
3528;DHT22;1778;47.966;7.854;2023-04-01T04:32:56;8.10;99.90
3528;DHT22;1778;47.966;7.854;2023-04-01T04:33:59;8.10;99.90
3528;DHT22;1778;47.966;7.854;2023-04-01T04:35:04;8.20;99.90
3528;DHT22;1778;47.966;7.854;2023-04-01T04:36:08;8.20;99.90
3528;DHT22;1778;47.966;7.854;2023-04-01T04:37:10;8.20;99.90
3528;DHT22;1778;47.966;7.854;2023-04-01T04:38:12;8.30;99.90
3528;DHT22;1778;47.966;7.854;2023-04-01T04:39:15;8.20;99.90
3528;DHT22;1778;47.966;7.854;2023-04-01T04:40:17;8.20;99.90
3528;DHT22;1778;47.966;7.854;2023-04-01T04:41:20;8.20;99.90
3528;DHT22;1778;47.966;7.854;2023-04-01T04:42:24;8.30;99.90
3528;DHT22;1778;47.966;7.854;2023-04-01T04:43:30;8.30;99.90
3528;DHT22;1778;47.966;7.854;2023-04-01T04:44:31;8.30;99.90
3528;DHT22;1778;47.966;7.854;2023-04-01T04:45:34;8.30;99.90
3528;DHT22;1778;47.966;7.854;2023-04-01T04:46:37;8.30;99.90
3528;DHT22;1778;47.966;7.854;2023-04-01T04:47:48;8.30;99.90
3528;DHT22;1778;47.966;7.854;2023-04-01T04:48:50;8.20;99.90
3528;DHT22;1778;47.966;7.854;2023-04-01T04:49:51;8.20;99.90
3528;DHT22;1778;47.966;7.854;2023-04-01T04:50:53;8.30;99.90
3528;DHT22;1778;47.966;7.854;2023-04-01T04:51:57;8.20;99.90
3528;DHT22;1778;47.966;7.854;2023-04-01T04:53:02;8.20;99.90
3528;DHT22;1778;47.966;7.854;2023-04-01T04:54:06;8.30;99.90
3528;DHT22;1778;47.966;7.854;2023-04-01T04:55:26;8.30;99.90
3528;DHT22;1778;47.966;7.854;2023-04-01T04:56:48;8.20;99.90
3528;DHT22;1778;47.966;7.854;2023-04-01T04:57:49;8.30;99.90
3528;DHT22;1778;47.966;7.854;2023-04-01T04:58:52;8.30;99.90
3528;DHT22;1778;47.966;7.854;2023-04-01T04:59:57;8.30;99.90
3528;DHT22;1778;47.966;7.854;2023-04-01T05:01:14;8.40;99.90
3528;DHT22;1778;47.966;7.854;2023-04-01T05:02:17;8.30;99.90
3528;DHT22;1778;47.966;7.854;2023-04-01T05:03:19;8.40;99.90
3528;DHT22;1778;47.966;7.854;2023-04-01T05:04:20;8.50;99.90
3528;DHT22;1778;47.966;7.854;2023-04-01T05:05:22;8.50;99.90
3528;DHT22;1778;47.966;7.854;2023-04-01T05:06:24;8.40;99.90
3528;DHT22;1778;47.966;7.854;2023-04-01T05:07:27;8.40;99.90
3528;DHT22;1778;47.966;7.854;2023-04-01T05:08:28;8.40;99.90
3528;DHT22;1778;47.966;7.854;2023-04-01T05:09:30;8.50;99.90
3528;DHT22;1778;47.966;7.854;2023-04-01T05:10:32;8.50;99.90
3528;DHT22;1778;47.966;7.854;2023-04-01T05:11:34;8.50;99.90
3528;DHT22;1778;47.966;7.854;2023-04-01T05:12:36;8.50;99.90
3528;DHT22;1778;47.966;7.854;2023-04-01T05:13:43;8.50;99.90
3528;DHT22;1778;47.966;7.854;2023-04-01T05:14:45;8.60;99.90
3528;DHT22;1778;47.966;7.854;2023-04-01T05:15:46;8.50;99.90
3528;DHT22;1778;47.966;7.854;2023-04-01T05:16:48;8.60;99.90
3528;DHT22;1778;47.966;7.854;2023-04-01T05:17:51;8.60;99.90
3528;DHT22;1778;47.966;7.854;2023-04-01T05:18:53;8.50;99.90
3528;DHT22;1778;47.966;7.854;2023-04-01T05:19:55;8.60;99.90
3528;DHT22;1778;47.966;7.854;2023-04-01T05:20:58;8.60;99.90
3528;DHT22;1778;47.966;7.854;2023-04-01T05:21:59;8.60;99.90
3528;DHT22;1778;47.966;7.854;2023-04-01T05:23:02;8.50;99.90
3528;DHT22;1778;47.966;7.854;2023-04-01T05:24:08;8.60;99.90
3528;DHT22;1778;47.966;7.854;2023-04-01T05:25:10;8.60;99.90
3528;DHT22;1778;47.966;7.854;2023-04-01T05:26:14;8.60;99.90
3528;DHT22;1778;47.966;7.854;2023-04-01T05:27:16;8.70;99.90
3528;DHT22;1778;47.966;7.854;2023-04-01T05:28:19;8.70;99.90
3528;DHT22;1778;47.966;7.854;2023-04-01T05:29:21;8.70;99.90
3528;DHT22;1778;47.966;7.854;2023-04-01T05:30:29;8.70;99.90
3528;DHT22;1778;47.966;7.854;2023-04-01T05:31:36;8.70;99.90
3528;DHT22;1778;47.966;7.854;2023-04-01T05:32:39;8.70;99.90
3528;DHT22;1778;47.966;7.854;2023-04-01T05:33:40;8.80;99.90
3528;DHT22;1778;47.966;7.854;2023-04-01T05:34:42;8.80;99.90
3528;DHT22;1778;47.966;7.854;2023-04-01T05:35:44;8.80;99.90
3528;DHT22;1778;47.966;7.854;2023-04-01T05:36:47;8.80;99.90
3528;DHT22;1778;47.966;7.854;2023-04-01T05:37:49;8.80;99.90
3528;DHT22;1778;47.966;7.854;2023-04-01T05:38:55;8.80;99.90
3528;DHT22;1778;47.966;7.854;2023-04-01T05:39:58;8.80;99.90
3528;DHT22;1778;47.966;7.854;2023-04-01T05:41:01;8.90;99.90
3528;DHT22;1778;47.966;7.854;2023-04-01T05:42:08;8.90;99.90
3528;DHT22;1778;47.966;7.854;2023-04-01T05:43:10;8.90;99.90
3528;DHT22;1778;47.966;7.854;2023-04-01T05:44:12;9.00;99.90
3528;DHT22;1778;47.966;7.854;2023-04-01T05:45:14;9.00;99.90
3528;DHT22;1778;47.966;7.854;2023-04-01T05:46:32;8.90;99.90
3528;DHT22;1778;47.966;7.854;2023-04-01T05:47:43;8.90;99.90
3528;DHT22;1778;47.966;7.854;2023-04-01T05:48:45;8.90;99.90
3528;DHT22;1778;47.966;7.854;2023-04-01T05:49:46;8.90;99.90
3528;DHT22;1778;47.966;7.854;2023-04-01T05:50:48;9.00;99.90
3528;DHT22;1778;47.966;7.854;2023-04-01T05:51:50;9.00;99.90
3528;DHT22;1778;47.966;7.854;2023-04-01T05:52:52;9.00;99.90
3528;DHT22;1778;47.966;7.854;2023-04-01T05:53:54;9.00;99.90
3528;DHT22;1778;47.966;7.854;2023-04-01T05:54:56;9.00;99.90
3528;DHT22;1778;47.966;7.854;2023-04-01T05:56:02;9.00;99.90
3528;DHT22;1778;47.966;7.854;2023-04-01T05:57:08;9.10;99.90
3528;DHT22;1778;47.966;7.854;2023-04-01T05:58:10;9.10;99.90
3528;DHT22;1778;47.966;7.854;2023-04-01T05:59:16;9.10;99.90
3528;DHT22;1778;47.966;7.854;2023-04-01T06:00:17;9.10;99.90
3528;DHT22;1778;47.966;7.854;2023-04-01T06:01:21;9.20;99.90
3528;DHT22;1778;47.966;7.854;2023-04-01T06:02:23;9.20;99.90
3528;DHT22;1778;47.966;7.854;2023-04-01T06:03:25;9.30;99.90
3528;DHT22;1778;47.966;7.854;2023-04-01T06:04:32;9.30;99.90
3528;DHT22;1778;47.966;7.854;2023-04-01T06:05:40;9.30;99.90
3528;DHT22;1778;47.966;7.854;2023-04-01T06:06:43;9.30;99.90
3528;DHT22;1778;47.966;7.854;2023-04-01T06:07:47;9.30;99.90
3528;DHT22;1778;47.966;7.854;2023-04-01T06:08:49;9.30;99.90
3528;DHT22;1778;47.966;7.854;2023-04-01T06:09:51;9.30;99.90
3528;DHT22;1778;47.966;7.854;2023-04-01T06:12:28;9.30;99.90
3528;DHT22;1778;47.966;7.854;2023-04-01T06:19:31;9.30;99.90
3528;DHT22;1778;47.966;7.854;2023-04-01T06:26:38;9.40;99.90
3528;DHT22;1778;47.966;7.854;2023-04-01T06:29:54;9.40;99.90
3528;DHT22;1778;47.966;7.854;2023-04-01T06:32:22;9.30;99.90
3528;DHT22;1778;47.966;7.854;2023-04-01T06:48:02;9.60;99.90
3528;DHT22;1778;47.966;7.854;2023-04-01T06:49:56;9.60;99.90
3528;DHT22;1778;47.966;7.854;2023-04-01T06:54:14;9.70;99.90
3528;DHT22;1778;47.966;7.854;2023-04-01T06:55:57;9.70;99.90
3528;DHT22;1778;47.966;7.854;2023-04-01T06:58:31;9.70;99.90
3528;DHT22;1778;47.966;7.854;2023-04-01T06:59:37;9.70;99.90
3528;DHT22;1778;47.966;7.854;2023-04-01T07:00:42;9.70;99.90
3528;DHT22;1778;47.966;7.854;2023-04-01T07:01:53;9.70;99.90
3528;DHT22;1778;47.966;7.854;2023-04-01T07:04:26;9.80;99.90
3528;DHT22;1778;47.966;7.854;2023-04-01T07:05:31;9.80;99.90
3528;DHT22;1778;47.966;7.854;2023-04-01T07:07:42;9.90;99.90
3528;DHT22;1778;47.966;7.854;2023-04-01T07:08:46;9.90;99.90
3528;DHT22;1778;47.966;7.854;2023-04-01T07:09:55;9.90;99.90
3528;DHT22;1778;47.966;7.854;2023-04-01T07:11:08;9.90;99.90
3528;DHT22;1778;47.966;7.854;2023-04-01T07:12:54;10.00;99.90
3528;DHT22;1778;47.966;7.854;2023-04-01T07:14:48;10.00;99.90
3528;DHT22;1778;47.966;7.854;2023-04-01T07:17:35;10.00;99.90
3528;DHT22;1778;47.966;7.854;2023-04-01T07:19:47;10.00;99.90
3528;DHT22;1778;47.966;7.854;2023-04-01T07:20:53;10.00;99.90
3528;DHT22;1778;47.966;7.854;2023-04-01T07:23:40;10.00;99.90
3528;DHT22;1778;47.966;7.854;2023-04-01T07:25:05;10.00;99.90
3528;DHT22;1778;47.966;7.854;2023-04-01T07:26:21;10.00;99.90
3528;DHT22;1778;47.966;7.854;2023-04-01T07:27:32;10.00;99.90
3528;DHT22;1778;47.966;7.854;2023-04-01T07:28:34;10.00;99.90
3528;DHT22;1778;47.966;7.854;2023-04-01T07:29:44;10.10;99.90
3528;DHT22;1778;47.966;7.854;2023-04-01T07:33:48;10.10;99.90
3528;DHT22;1778;47.966;7.854;2023-04-01T07:37:27;10.10;99.90
3528;DHT22;1778;47.966;7.854;2023-04-01T07:38:53;10.10;99.90
3528;DHT22;1778;47.966;7.854;2023-04-01T07:42:01;10.10;99.90
3528;DHT22;1778;47.966;7.854;2023-04-01T07:46:56;10.10;99.90
3528;DHT22;1778;47.966;7.854;2023-04-01T07:49:33;10.00;99.90
3528;DHT22;1778;47.966;7.854;2023-04-01T07:51:34;10.00;99.90
3528;DHT22;1778;47.966;7.854;2023-04-01T07:56:49;10.20;99.90
3528;DHT22;1778;47.966;7.854;2023-04-01T08:02:27;10.20;99.90
3528;DHT22;1778;47.966;7.854;2023-04-01T08:04:23;10.20;99.90
3528;DHT22;1778;47.966;7.854;2023-04-01T08:05:53;10.20;99.90
3528;DHT22;1778;47.966;7.854;2023-04-01T08:07:18;10.30;99.90
3528;DHT22;1778;47.966;7.854;2023-04-01T08:12:27;10.30;99.90
3528;DHT22;1778;47.966;7.854;2023-04-01T08:15:56;10.20;99.90
3528;DHT22;1778;47.966;7.854;2023-04-01T08:17:31;10.30;99.90
3528;DHT22;1778;47.966;7.854;2023-04-01T08:18:41;10.30;99.90
3528;DHT22;1778;47.966;7.854;2023-04-01T08:21:05;10.30;99.90
3528;DHT22;1778;47.966;7.854;2023-04-01T08:22:20;10.30;99.90
3528;DHT22;1778;47.966;7.854;2023-04-01T08:23:30;10.30;99.90
3528;DHT22;1778;47.966;7.854;2023-04-01T08:24:43;10.20;99.90
3528;DHT22;1778;47.966;7.854;2023-04-01T08:28:44;10.20;99.90
3528;DHT22;1778;47.966;7.854;2023-04-01T08:30:25;10.10;99.90
3528;DHT22;1778;47.966;7.854;2023-04-01T08:33:58;10.20;99.90
3528;DHT22;1778;47.966;7.854;2023-04-01T08:36:33;10.30;99.90
3528;DHT22;1778;47.966;7.854;2023-04-01T08:37:48;10.30;99.90
3528;DHT22;1778;47.966;7.854;2023-04-01T08:39:06;10.40;99.90
3528;DHT22;1778;47.966;7.854;2023-04-01T08:42:02;10.40;99.90
3528;DHT22;1778;47.966;7.854;2023-04-01T08:51:19;10.60;99.90
3528;DHT22;1778;47.966;7.854;2023-04-01T08:56:47;10.70;99.90
3528;DHT22;1778;47.966;7.854;2023-04-01T08:58:11;10.70;99.90
3528;DHT22;1778;47.966;7.854;2023-04-01T09:06:20;10.90;99.90
3528;DHT22;1778;47.966;7.854;2023-04-01T09:07:54;10.90;99.90
3528;DHT22;1778;47.966;7.854;2023-04-01T09:10:40;10.90;99.90
3528;DHT22;1778;47.966;7.854;2023-04-01T09:12:19;10.90;99.90
3528;DHT22;1778;47.966;7.854;2023-04-01T09:13:49;10.90;99.90
3528;DHT22;1778;47.966;7.854;2023-04-01T09:20:52;11.10;99.90
3528;DHT22;1778;47.966;7.854;2023-04-01T09:26:31;11.10;99.90
3528;DHT22;1778;47.966;7.854;2023-04-01T09:29:23;11.10;99.90
3528;DHT22;1778;47.966;7.854;2023-04-01T09:35:47;11.10;99.90
3528;DHT22;1778;47.966;7.854;2023-04-01T09:45:40;11.20;99.90
3528;DHT22;1778;47.966;7.854;2023-04-01T09:49:02;11.10;99.90